createdAt,value
2018-09-05T00:00:43.879Z,56.60
2018-09-05T00:01:43.895Z,56.10
2018-09-05T00:02:43.919Z,58.70
2018-09-05T00:03:43.937Z,57.70
2018-09-05T00:04:43.957Z,56.40
2018-09-05T00:05:43.977Z,58.00
2018-09-05T00:06:43.994Z,56.90
2018-09-05T00:07:44.015Z,58.00
2018-09-05T00:08:44.038Z,54.90
2018-09-05T00:09:44.056Z,55.70
2018-09-05T00:10:44.083Z,56.00
2018-09-05T00:11:44.096Z,55.60
2018-09-05T00:12:44.123Z,55.60
2018-09-05T00:13:44.132Z,51.90
2018-09-05T00:14:44.157Z,54.10
2018-09-05T00:15:44.175Z,53.30
2018-09-05T00:16:44.203Z,54.20
2018-09-05T00:17:44.219Z,52.40
2018-09-05T00:18:44.239Z,50.90
2018-09-05T00:19:44.256Z,52.80
2018-09-05T00:20:44.274Z,53.70
2018-09-05T00:21:44.294Z,52.00
2018-09-05T00:22:44.321Z,53.10
2018-09-05T00:23:44.365Z,51.20
2018-09-05T00:24:44.355Z,51.80
2018-09-05T00:25:44.381Z,50.50
2018-09-05T00:26:44.400Z,50.10
2018-09-05T00:27:44.418Z,50.00
2018-09-05T00:28:44.444Z,52.00
2018-09-05T00:29:44.459Z,56.20
2018-09-05T00:30:44.479Z,51.40
2018-09-05T00:31:44.503Z,52.10
2018-09-05T00:32:44.521Z,55.80
2018-09-05T00:33:44.540Z,53.20
2018-09-05T00:34:44.558Z,52.40
2018-09-05T00:35:44.578Z,52.90
2018-09-05T00:36:44.603Z,53.70
2018-09-05T00:37:44.625Z,51.50
2018-09-05T00:38:44.645Z,54.50
2018-09-05T00:39:44.663Z,53.50
2018-09-05T00:40:44.680Z,54.10
2018-09-05T00:41:44.700Z,54.30
2018-09-05T00:42:44.718Z,52.50
2018-09-05T00:43:44.742Z,53.40
2018-09-05T00:44:44.757Z,55.30
2018-09-05T00:45:44.785Z,55.00
2018-09-05T00:46:44.801Z,53.10
2018-09-05T00:47:44.822Z,54.00
2018-09-05T00:48:44.839Z,49.90
2018-09-05T00:49:44.859Z,51.40
2018-09-05T00:50:44.878Z,50.30
2018-09-05T00:51:44.902Z,51.70
2018-09-05T00:52:44.922Z,50.30
2018-09-05T00:53:44.946Z,52.10
2018-09-05T00:54:44.971Z,53.30
2018-09-05T00:55:44.981Z,53.20
2018-09-05T00:56:45.006Z,53.50
2018-09-05T00:57:45.021Z,53.80
2018-09-05T00:58:45.045Z,53.30
2018-09-05T00:59:45.059Z,53.50
2018-09-05T01:00:45.084Z,52.50
2018-09-05T01:01:45.100Z,52.60
2018-09-05T01:02:45.121Z,52.00
2018-09-05T01:03:45.138Z,52.30
2018-09-05T01:04:45.157Z,52.20
2018-09-05T01:05:45.185Z,51.60
2018-09-05T01:06:45.206Z,52.00
2018-09-05T01:07:45.223Z,51.30
2018-09-05T01:08:45.247Z,54.10
2018-09-05T01:09:45.265Z,52.10
2018-09-05T01:10:45.283Z,53.10
2018-09-05T01:11:45.304Z,53.60
2018-09-05T01:12:45.322Z,53.50
2018-09-05T01:13:45.341Z,53.20
2018-09-05T01:14:45.364Z,54.00
2018-09-05T01:15:45.386Z,54.60
2018-09-05T01:16:45.402Z,53.50
2018-09-05T01:17:45.420Z,52.30
2018-09-05T01:18:45.453Z,52.60
2018-09-05T01:19:45.471Z,53.10
2018-09-05T01:20:45.495Z,54.80
2018-09-05T01:21:45.508Z,53.40
2018-09-05T01:22:45.525Z,53.90
2018-09-05T01:23:45.543Z,53.10
2018-09-05T01:24:45.565Z,54.90
2018-09-05T01:25:45.590Z,55.50
2018-09-05T01:26:45.604Z,54.20
2018-09-05T01:27:45.627Z,53.70
2018-09-05T01:28:45.644Z,55.20
2018-09-05T01:29:45.660Z,53.60
2018-09-05T01:30:45.686Z,52.70
2018-09-05T01:31:45.706Z,53.20
2018-09-05T01:32:45.718Z,51.70
2018-09-05T01:33:45.757Z,53.00
2018-09-05T01:34:45.761Z,53.50
2018-09-05T01:35:45.778Z,54.50
2018-09-05T01:36:45.849Z,55.00
2018-09-05T01:37:45.823Z,54.70
2018-09-05T01:38:45.836Z,54.20
2018-09-05T01:39:45.867Z,54.30
2018-09-05T01:40:45.878Z,54.10
2018-09-05T01:41:45.905Z,54.70
2018-09-05T01:42:45.917Z,56.10
2018-09-05T01:43:45.940Z,54.90
2018-09-05T01:44:45.958Z,53.80
2018-09-05T01:45:45.981Z,54.20
2018-09-05T01:46:45.997Z,54.90
2018-09-05T01:47:46.018Z,55.90
2018-09-05T01:48:46.036Z,55.60
2018-09-05T01:49:46.065Z,56.40
2018-09-05T01:50:46.090Z,56.60
2018-09-05T01:51:46.099Z,56.70
2018-09-05T01:52:46.118Z,57.10
2018-09-05T01:53:46.138Z,57.30
2018-09-05T01:54:46.157Z,57.80
2018-09-05T01:55:46.178Z,56.70
2018-09-05T01:56:46.195Z,55.10
2018-09-05T01:57:46.216Z,56.30
2018-09-05T01:58:46.234Z,55.70
2018-09-05T01:59:46.256Z,54.70
2018-09-05T02:00:46.276Z,55.50
2018-09-05T02:01:46.298Z,52.30
2018-09-05T02:02:46.316Z,55.00
2018-09-05T02:03:46.337Z,56.40
2018-09-05T02:04:46.354Z,56.00
2018-09-05T02:05:46.374Z,57.30
2018-09-05T02:06:46.395Z,55.30
2018-09-05T02:07:46.412Z,56.00
2018-09-05T02:08:46.435Z,56.40
2018-09-05T02:09:46.457Z,56.20
2018-09-05T02:10:46.480Z,55.20
2018-09-05T02:11:46.494Z,53.20
2018-09-05T02:12:46.513Z,53.10
2018-09-05T02:13:46.530Z,51.50
2018-09-05T02:14:46.551Z,52.10
2018-09-05T02:15:46.573Z,54.00
2018-09-05T02:16:46.592Z,52.90
2018-09-05T02:17:46.611Z,52.80
2018-09-05T02:18:46.631Z,53.80
2018-09-05T02:19:46.647Z,51.80
2018-09-05T02:20:46.671Z,52.40
2018-09-05T02:21:46.691Z,50.80
2018-09-05T02:22:46.710Z,51.30
2018-09-05T02:23:46.728Z,50.90
2018-09-05T02:24:46.745Z,51.00
2018-09-05T02:25:46.765Z,49.40
2018-09-05T02:26:46.787Z,49.80
2018-09-05T02:27:46.814Z,49.80
2018-09-05T02:28:46.828Z,50.20
2018-09-05T02:29:46.845Z,50.20
2018-09-05T02:30:46.864Z,49.30
2018-09-05T02:31:46.888Z,51.50
2018-09-05T02:32:46.909Z,49.00
2018-09-05T02:33:46.926Z,50.40
2018-09-05T02:34:46.945Z,49.90
2018-09-05T02:35:46.965Z,50.50
2018-09-05T02:36:46.981Z,51.00
2018-09-05T02:37:47.004Z,50.30
2018-09-05T02:38:47.018Z,50.00
2018-09-05T02:39:47.044Z,50.00
2018-09-05T02:40:47.069Z,50.00
2018-09-05T02:41:47.081Z,50.40
2018-09-05T02:42:47.099Z,50.30
2018-09-05T02:43:47.118Z,50.50
2018-09-05T02:44:47.138Z,49.90
2018-09-05T02:45:47.160Z,48.20
2018-09-05T02:46:47.176Z,48.10
2018-09-05T02:47:47.197Z,48.20
2018-09-05T02:48:47.216Z,49.70
2018-09-05T02:49:47.235Z,49.50
2018-09-05T02:50:47.251Z,49.30
2018-09-05T02:51:47.273Z,48.80
2018-09-05T02:52:47.292Z,50.10
2018-09-05T02:53:47.317Z,48.80
2018-09-05T02:54:47.334Z,49.20
2018-09-05T02:55:47.357Z,49.10
2018-09-05T02:56:47.370Z,48.30
2018-09-05T02:57:47.389Z,49.40
2018-09-05T02:58:47.413Z,49.70
2018-09-05T02:59:47.434Z,52.30
2018-09-05T03:00:47.459Z,51.00
2018-09-05T03:01:47.465Z,52.10
2018-09-05T03:02:47.488Z,52.40
2018-09-05T03:03:47.513Z,53.40
2018-09-05T03:04:47.528Z,53.10
2018-09-05T03:05:47.545Z,52.00
2018-09-05T03:06:47.564Z,52.70
2018-09-05T03:07:47.592Z,48.80
2018-09-05T03:38:41.045Z,39.90
2018-09-05T03:39:41.032Z,57.20
2018-09-05T03:41:32.941Z,62.70
2018-09-05T03:42:32.951Z,64.10
2018-09-05T03:44:24.871Z,55.80
2018-09-05T03:45:24.866Z,57.80
2018-09-05T03:47:16.778Z,56.70
2018-09-05T03:48:16.785Z,55.60
2018-09-05T03:50:08.718Z,56.90
2018-09-05T03:51:08.713Z,56.10
2018-09-05T03:53:00.630Z,52.10
2018-09-05T03:54:00.630Z,53.50
2018-09-05T03:55:52.570Z,51.30
2018-09-05T03:56:52.558Z,49.00
2018-09-05T03:58:44.495Z,49.10
2018-09-05T03:59:44.485Z,48.00
2018-09-05T04:01:36.401Z,48.90
2018-09-05T04:02:36.417Z,48.20
2018-09-05T04:04:28.351Z,46.10
2018-09-05T04:05:28.339Z,45.60
2018-09-05T04:07:20.265Z,45.80
2018-09-05T04:08:20.284Z,45.50
2018-09-05T04:10:12.240Z,45.70
2018-09-05T04:11:12.235Z,45.90
2018-09-05T04:13:04.154Z,44.30
2018-09-05T04:14:04.163Z,43.80
2018-09-05T04:15:56.122Z,44.10
2018-09-05T04:16:56.125Z,44.80
2018-09-05T04:18:48.033Z,43.90
2018-09-05T04:19:48.025Z,43.50
2018-09-05T04:21:39.945Z,43.50
2018-09-05T04:22:39.958Z,44.20
2018-09-05T04:24:31.906Z,44.20
2018-09-05T04:25:31.889Z,44.70
2018-09-05T04:27:23.807Z,43.60
2018-09-05T04:28:23.821Z,44.80
2018-09-05T04:30:15.769Z,43.20
2018-09-05T04:31:15.757Z,42.70
2018-09-05T04:33:07.679Z,41.90
2018-09-05T04:34:07.697Z,42.30
2018-09-05T04:35:59.638Z,42.90
2018-09-05T04:36:59.638Z,41.40
2018-09-05T04:38:51.582Z,42.60
2018-09-05T04:39:51.564Z,41.40
2018-09-05T04:41:43.503Z,41.60
2018-09-05T04:42:43.498Z,42.00
2018-09-05T04:44:35.439Z,40.30
2018-09-05T04:45:35.437Z,39.80
2018-09-05T04:47:27.348Z,41.40
2018-09-05T04:48:27.361Z,39.90
2018-09-05T04:50:19.307Z,40.30
2018-09-05T04:51:19.298Z,40.70
2018-09-05T04:53:11.211Z,39.50
2018-09-05T04:54:11.223Z,39.40
2018-09-05T04:56:03.196Z,41.00
2018-09-05T04:57:03.179Z,38.40
2018-09-05T04:58:55.178Z,39.40
2018-09-05T04:59:55.116Z,38.90
2018-09-05T05:01:47.053Z,38.80
2018-09-05T05:02:47.053Z,38.00
2018-09-05T05:04:39.080Z,37.00
2018-09-05T05:05:39.082Z,38.30
2018-09-05T05:07:31.349Z,38.00
2018-09-05T05:08:31.101Z,38.20
2018-09-05T05:10:23.048Z,36.10
2018-09-05T05:11:23.046Z,36.60
2018-09-05T05:13:14.964Z,35.90
2018-09-05T05:14:15.003Z,36.70
2018-09-05T05:16:06.935Z,35.60
2018-09-05T05:17:07.061Z,36.70
2018-09-05T05:18:58.905Z,37.00
2018-09-05T05:19:58.924Z,37.20
2018-09-05T05:21:50.962Z,38.60
2018-09-05T05:22:50.952Z,37.30
2018-09-05T05:24:42.894Z,38.60
2018-09-05T05:25:42.888Z,38.10
2018-09-05T05:27:34.807Z,37.20
2018-09-05T05:28:34.818Z,35.80
2018-09-05T05:30:26.755Z,38.10
2018-09-05T05:31:26.750Z,37.80
2018-09-05T05:33:18.664Z,37.60
2018-09-05T05:34:18.675Z,38.80
2018-09-05T05:36:10.704Z,37.90
2018-09-05T05:37:10.699Z,38.00
2018-09-05T05:39:02.718Z,36.40
2018-09-05T05:40:02.739Z,36.40
2018-09-05T05:41:54.678Z,35.70
2018-09-05T05:42:54.675Z,37.10
2018-09-05T05:44:47.119Z,37.90
2018-09-05T05:45:47.101Z,37.90
2018-09-05T05:47:39.037Z,38.50
2018-09-05T05:48:39.041Z,37.80
2018-09-05T05:50:30.997Z,37.60
2018-09-05T05:51:30.979Z,36.70
2018-09-05T05:53:22.902Z,37.30
2018-09-05T05:54:22.905Z,35.80
2018-09-05T05:56:14.847Z,37.00
2018-09-05T05:57:14.837Z,36.20
2018-09-05T05:59:06.764Z,35.60
2018-09-05T06:00:06.771Z,35.50
2018-09-05T06:01:58.714Z,36.70
2018-09-05T06:02:58.711Z,36.60
2018-09-05T06:04:50.659Z,35.40
2018-09-05T06:05:50.734Z,34.60
2018-09-05T06:07:42.566Z,36.00
2018-09-05T06:08:42.581Z,36.10
2018-09-05T06:10:34.521Z,35.20
2018-09-05T06:11:34.514Z,36.10
2018-09-05T06:13:26.438Z,35.30
2018-09-05T06:14:26.454Z,35.80
2018-09-05T06:16:18.420Z,35.50
2018-09-05T06:17:18.399Z,36.50
2018-09-05T06:19:10.310Z,37.70
2018-09-05T06:20:10.327Z,37.40
2018-09-05T06:22:02.254Z,37.30
2018-09-05T06:23:02.241Z,36.30
2018-09-05T06:24:54.192Z,39.10
2018-09-05T06:25:54.181Z,38.80
2018-09-05T06:27:46.133Z,40.20
2018-09-05T06:28:46.139Z,38.30
2018-09-05T06:30:38.188Z,37.50
2018-09-05T06:31:38.074Z,43.40
2018-09-05T06:33:29.997Z,44.00
2018-09-05T06:34:30.013Z,48.70
2018-09-05T06:36:21.959Z,43.90
2018-09-05T06:37:21.945Z,48.00
2018-09-05T06:39:13.878Z,52.30
2018-09-05T06:40:13.887Z,49.60
2018-09-05T06:42:05.834Z,50.70
2018-09-05T06:43:05.822Z,53.70
2018-09-05T06:44:57.796Z,55.90
2018-09-05T06:45:57.756Z,53.80
2018-09-05T06:47:49.695Z,55.50
2018-09-05T06:48:49.703Z,55.10
2018-09-05T06:50:41.786Z,58.10
2018-09-05T06:51:41.627Z,56.30
2018-09-05T06:53:33.805Z,56.60
2018-09-05T06:54:33.678Z,58.20
2018-09-05T06:56:26.564Z,60.60
2018-09-05T06:57:25.671Z,59.70
2018-09-05T06:59:17.567Z,57.80
2018-09-05T07:00:17.603Z,62.40
2018-09-05T07:02:09.629Z,66.60
2018-09-05T07:03:09.551Z,65.60
2018-09-05T07:05:01.495Z,64.60
2018-09-05T07:06:01.477Z,67.10
2018-09-05T07:07:53.561Z,63.60
2018-09-05T07:08:53.408Z,64.10
2018-09-05T07:10:45.426Z,65.00
2018-09-05T07:11:45.343Z,63.60
2018-09-05T07:13:37.417Z,66.30
2018-09-05T07:14:37.330Z,65.50
2018-09-05T07:16:29.337Z,67.20
2018-09-05T07:17:29.287Z,65.50
2018-09-05T07:19:21.206Z,66.50
2018-09-05T07:20:21.171Z,68.70
2018-09-05T07:22:13.124Z,68.80
2018-09-05T07:23:13.137Z,66.50
2018-09-05T07:25:05.119Z,66.00
2018-09-05T07:26:05.071Z,67.40
2018-09-05T07:27:57.589Z,66.10
2018-09-05T07:28:57.556Z,67.30
2018-09-05T07:30:49.482Z,65.40
2018-09-05T07:31:49.427Z,65.40
2018-09-05T07:33:41.338Z,66.20
2018-09-05T07:34:41.329Z,65.00
2018-09-05T07:36:33.391Z,62.40
2018-09-05T07:37:33.270Z,62.70
2018-09-05T07:39:25.191Z,64.40
2018-09-05T07:40:25.204Z,62.20
2018-09-05T07:42:17.162Z,64.10
2018-09-05T07:43:17.165Z,65.10
2018-09-05T07:45:09.128Z,63.60
2018-09-05T07:46:09.106Z,60.60
2018-09-05T07:48:01.155Z,63.60
2018-09-05T07:49:01.128Z,60.80
2018-09-05T07:50:53.049Z,62.30
2018-09-05T07:51:52.998Z,63.60
2018-09-05T07:53:44.946Z,63.10
2018-09-05T07:54:44.974Z,61.30
2018-09-05T07:56:36.839Z,62.60
2018-09-05T07:57:36.894Z,62.90
2018-09-05T07:59:28.804Z,62.50
2018-09-05T08:00:28.835Z,61.40
2018-09-05T08:02:20.738Z,60.60
2018-09-05T08:03:20.735Z,60.60
2018-09-05T08:05:12.691Z,59.70
2018-09-05T08:06:12.682Z,60.20
2018-09-05T08:08:04.628Z,58.70
2018-09-05T08:09:04.631Z,57.90
2018-09-05T08:10:56.617Z,57.30
2018-09-05T08:11:56.620Z,58.30
2018-09-05T08:13:48.653Z,59.30
2018-09-05T08:14:48.548Z,60.00
2018-09-05T08:16:40.460Z,58.40
2018-09-05T08:17:40.493Z,59.00
2018-09-05T08:19:32.509Z,56.40
2018-09-05T08:20:32.499Z,56.50
2018-09-05T08:22:24.386Z,55.70
2018-09-05T08:23:24.381Z,57.30
2018-09-05T08:25:16.338Z,56.00
2018-09-05T08:26:16.304Z,56.40
2018-09-05T08:28:08.306Z,57.60
2018-09-05T08:29:08.379Z,59.30
2018-09-05T08:31:00.177Z,57.40
2018-09-05T08:32:00.190Z,60.20
2018-09-05T08:33:52.226Z,58.60
2018-09-05T08:34:52.348Z,57.80
2018-09-05T08:36:44.451Z,57.40
2018-09-05T08:37:44.317Z,57.90
2018-09-05T08:39:36.177Z,57.60
2018-09-05T08:40:36.172Z,58.70
2018-09-05T08:42:28.219Z,60.00
2018-09-05T08:43:28.170Z,56.80
2018-09-05T08:45:20.254Z,56.50
2018-09-05T08:46:20.274Z,57.60
2018-09-05T08:48:12.176Z,56.00
2018-09-05T08:49:12.024Z,54.80
2018-09-05T08:51:03.983Z,54.20
2018-09-05T08:52:03.973Z,56.20
2018-09-05T08:53:55.921Z,55.20
2018-09-05T08:54:55.962Z,55.70
2018-09-05T08:56:47.892Z,54.60
2018-09-05T08:57:47.936Z,52.60
2018-09-05T08:59:39.909Z,55.70
2018-09-05T09:00:39.863Z,56.30
2018-09-05T09:02:31.768Z,56.80
2018-09-05T09:03:31.753Z,56.80
2018-09-05T09:05:23.711Z,56.00
2018-09-05T09:06:23.757Z,56.40
2018-09-05T09:08:15.718Z,55.70
2018-09-05T09:09:15.689Z,56.00
2018-09-05T09:11:07.653Z,57.40
2018-09-05T09:12:07.615Z,59.50
2018-09-05T09:13:59.622Z,58.20
2018-09-05T09:14:59.618Z,59.10
2018-09-05T09:16:51.501Z,58.20
2018-09-05T09:17:51.536Z,60.00
2018-09-05T09:19:43.522Z,59.70
2018-09-05T09:20:43.463Z,58.80
2018-09-05T09:22:35.561Z,60.90
2018-09-05T09:23:35.468Z,60.40
2018-09-05T09:25:27.474Z,60.50
2018-09-05T09:26:27.408Z,60.30
2018-09-05T09:28:19.406Z,61.50
2018-09-05T09:29:19.345Z,61.00
2018-09-05T09:31:11.278Z,59.40
2018-09-05T09:32:11.334Z,58.40
2018-09-05T09:34:03.249Z,58.40
2018-09-05T09:35:03.249Z,57.90
2018-09-05T09:36:55.166Z,57.40
2018-09-05T09:37:55.186Z,59.10
2018-09-05T09:39:47.157Z,57.10
2018-09-05T09:40:47.156Z,56.60
2018-09-05T09:42:39.114Z,56.80
2018-09-05T09:43:39.119Z,55.90
2018-09-05T09:45:31.104Z,56.40
2018-09-05T09:46:31.144Z,54.70
2018-09-05T09:48:23.063Z,55.50
2018-09-05T09:49:23.063Z,55.10
2018-09-05T09:51:15.006Z,54.60
2018-09-05T09:52:15.021Z,54.10
2018-09-05T09:54:07.022Z,52.90
2018-09-05T09:55:07.486Z,51.60
2018-09-05T09:56:59.438Z,53.90
2018-09-05T09:57:59.458Z,54.70
2018-09-05T09:59:51.415Z,53.80
2018-09-05T10:00:51.418Z,53.30
2018-09-05T10:02:43.450Z,53.40
2018-09-05T10:03:43.520Z,54.20
2018-09-05T10:05:35.343Z,54.10
2018-09-05T10:06:35.338Z,51.40
2018-09-05T10:08:27.301Z,50.10
2018-09-05T10:09:27.305Z,49.10
2018-09-05T10:11:19.226Z,50.40
2018-09-05T10:12:19.249Z,51.10
2018-09-05T10:14:11.272Z,49.80
2018-09-05T10:15:11.205Z,50.30
2018-09-05T10:17:03.358Z,49.60
2018-09-05T10:18:03.353Z,49.80
2018-09-05T10:19:55.302Z,48.30
2018-09-05T10:20:55.355Z,47.00
2018-09-05T10:22:47.245Z,45.50
2018-09-05T10:23:47.279Z,44.60
2018-09-05T10:25:39.244Z,44.50
2018-09-05T10:26:39.211Z,45.30
2018-09-05T10:28:31.355Z,45.40
2018-09-05T10:29:31.165Z,45.10
2018-09-05T10:31:23.162Z,43.00
2018-09-05T10:32:23.207Z,43.10
2018-09-05T10:34:15.233Z,43.60
2018-09-05T10:35:15.078Z,42.60
2018-09-05T10:37:07.047Z,44.90
2018-09-05T10:38:07.173Z,42.00
2018-09-05T10:39:58.994Z,41.10
2018-09-05T10:40:58.984Z,41.60
2018-09-05T10:42:51.011Z,42.00
2018-09-05T10:43:51.023Z,43.50
2018-09-05T10:45:44.978Z,41.60
2018-09-05T10:46:42.989Z,43.40
2018-09-05T10:48:34.889Z,43.20
2018-09-05T10:49:34.948Z,44.90
2018-09-05T10:51:26.835Z,44.60
2018-09-05T10:52:26.892Z,45.20
2018-09-05T10:54:20.819Z,45.40
2018-09-05T10:55:18.805Z,44.20
2018-09-05T10:57:11.272Z,44.80
2018-09-05T10:58:11.280Z,44.20
2018-09-05T11:00:03.201Z,45.70
2018-09-05T11:01:03.269Z,45.70
2018-09-05T11:02:55.185Z,46.30
2018-09-05T11:03:55.273Z,46.20
2018-09-05T11:05:47.113Z,45.50
2018-09-05T11:06:47.111Z,44.30
2018-09-05T11:07:47.136Z,46.00
2018-09-05T11:08:47.162Z,45.00
2018-09-05T11:09:47.208Z,44.80
2018-09-05T11:10:47.289Z,47.60
2018-09-05T11:11:47.246Z,45.90
2018-09-05T11:12:47.266Z,45.10
2018-09-05T11:13:47.291Z,46.50
2018-09-05T11:14:47.318Z,44.10
2018-09-05T11:15:47.355Z,45.50
2018-09-05T11:16:47.371Z,45.10
2018-09-05T11:17:47.403Z,45.70
2018-09-05T11:18:47.421Z,48.40
2018-09-05T11:19:47.441Z,49.10
2018-09-05T11:20:47.469Z,46.40
2018-09-05T11:21:47.491Z,48.10
2018-09-05T11:22:47.522Z,47.70
2018-09-05T11:23:47.553Z,46.40
2018-09-05T11:24:47.577Z,47.40
2018-09-05T11:25:47.599Z,47.90
2018-09-05T11:26:47.619Z,49.00
2018-09-05T11:27:47.724Z,49.00
2018-09-05T11:28:47.673Z,48.40
2018-09-05T11:29:47.695Z,48.70
2018-09-05T11:30:47.729Z,49.60
2018-09-05T11:31:47.746Z,46.90
2018-09-05T11:32:47.772Z,48.10
2018-09-05T11:33:47.805Z,45.80
2018-09-05T11:34:47.901Z,46.40
2018-09-05T11:35:47.932Z,48.30
2018-09-05T11:36:47.896Z,46.40
2018-09-05T11:37:47.900Z,47.90
2018-09-05T11:38:47.929Z,48.60
2018-09-05T11:39:47.953Z,47.70
2018-09-05T11:40:47.978Z,46.40
2018-09-05T11:41:48.001Z,48.30
2018-09-05T11:42:48.031Z,48.60
2018-09-05T11:43:48.065Z,49.60
2018-09-05T11:44:48.083Z,47.90
2018-09-05T11:45:48.109Z,47.80
2018-09-05T11:46:48.131Z,46.60
2018-09-05T11:47:48.156Z,44.90
2018-09-05T11:48:48.184Z,46.70
2018-09-05T11:49:48.215Z,46.10
2018-09-05T11:50:48.257Z,44.50
2018-09-05T11:51:48.260Z,44.70
2018-09-05T11:52:48.285Z,43.10
2018-09-05T11:53:48.314Z,42.40
2018-09-05T11:54:48.338Z,40.80
2018-09-05T11:55:48.362Z,40.20
2018-09-05T11:56:48.383Z,38.60
2018-09-05T11:57:48.415Z,38.10
2018-09-05T11:58:48.437Z,39.90
2018-09-05T11:59:48.461Z,39.70
2018-09-05T12:00:48.488Z,41.00
2018-09-05T12:01:48.512Z,40.00
2018-09-05T12:02:48.542Z,43.60
2018-09-05T12:03:48.567Z,40.20
2018-09-05T12:04:48.615Z,40.40
2018-09-05T12:05:48.615Z,38.80
2018-09-05T12:06:48.649Z,38.10
2018-09-05T12:07:48.664Z,34.70
2018-09-05T12:08:48.689Z,36.90
2018-09-05T12:09:48.726Z,33.90
2018-09-05T12:10:48.761Z,32.00
2018-09-05T12:11:48.766Z,32.60
2018-09-05T12:12:48.791Z,30.70
2018-09-05T12:13:48.819Z,30.80
2018-09-05T12:14:48.841Z,32.00
2018-09-05T12:15:48.866Z,33.50
2018-09-05T12:16:48.893Z,32.00
2018-09-05T12:17:48.927Z,33.00
2018-09-05T12:18:48.943Z,32.00
2018-09-05T12:19:48.968Z,31.70
2018-09-05T12:20:48.996Z,30.50
2018-09-05T12:21:49.016Z,30.80
2018-09-05T12:22:49.038Z,31.80
2018-09-05T12:23:49.067Z,31.00
2018-09-05T12:24:49.090Z,32.20
2018-09-05T12:25:49.118Z,31.20
2018-09-05T12:26:49.144Z,31.20
2018-09-05T12:27:49.174Z,31.70
2018-09-05T12:28:49.194Z,32.10
2018-09-05T12:29:49.221Z,32.20
2018-09-05T12:30:49.242Z,32.20
2018-09-05T12:31:49.270Z,31.60
2018-09-05T12:32:49.295Z,30.30
2018-09-05T12:33:49.320Z,29.80
2018-09-05T12:34:49.347Z,29.60
2018-09-05T12:35:49.372Z,30.00
2018-09-05T12:36:49.397Z,31.30
2018-09-05T12:37:49.423Z,28.70
2018-09-05T12:38:49.448Z,28.50
2018-09-05T12:39:49.475Z,28.10
2018-09-05T12:40:49.509Z,31.00
2018-09-05T12:41:49.523Z,32.70
2018-09-05T12:42:49.549Z,33.00
2018-09-05T12:43:49.575Z,32.60
2018-09-05T12:44:49.708Z,33.10
2018-09-05T12:45:49.639Z,35.30
2018-09-05T12:46:49.652Z,36.10
2018-09-05T12:47:49.677Z,34.70
2018-09-05T12:48:49.708Z,33.10
2018-09-05T12:49:49.729Z,34.40
2018-09-05T12:50:49.752Z,33.80
2018-09-05T12:51:49.777Z,31.70
2018-09-05T12:52:49.807Z,30.30
2018-09-05T12:53:49.831Z,29.20
2018-09-05T12:54:49.859Z,28.10
2018-09-05T12:55:49.885Z,29.20
2018-09-05T12:56:49.906Z,29.60
2018-09-05T12:57:49.933Z,29.60
2018-09-05T12:58:49.957Z,29.50
2018-09-05T12:59:49.983Z,29.40
2018-09-05T13:00:50.014Z,27.10
2018-09-05T13:01:50.035Z,27.30
2018-09-05T13:02:50.060Z,28.20
2018-09-05T13:03:50.086Z,29.60
2018-09-05T13:04:50.125Z,31.50
2018-09-05T13:05:50.134Z,31.10
2018-09-05T13:06:50.163Z,30.20
2018-09-05T13:07:50.185Z,27.80
2018-09-05T13:08:50.218Z,28.40
2018-09-05T13:09:50.236Z,29.40
2018-09-05T13:10:50.266Z,28.10
2018-09-05T13:11:50.285Z,28.00
2018-09-05T13:12:50.310Z,28.00
2018-09-05T13:13:50.335Z,28.30
2018-09-05T13:14:50.363Z,29.90
2018-09-05T13:15:50.388Z,32.50
2018-09-05T13:16:50.412Z,30.50
2018-09-05T13:17:50.441Z,29.70
2018-09-05T13:18:50.462Z,28.50
2018-09-05T13:19:50.489Z,28.60
2018-09-05T13:20:50.515Z,29.60
2018-09-05T13:21:50.548Z,28.10
2018-09-05T13:22:50.595Z,27.80
2018-09-05T13:23:50.589Z,27.90
2018-09-05T13:24:50.619Z,27.00
2018-09-05T13:25:50.646Z,24.50
2018-09-05T13:26:50.690Z,23.40
2018-09-05T13:27:50.693Z,25.40
2018-09-05T13:28:50.719Z,26.30
2018-09-05T13:29:50.755Z,23.70
2018-09-05T13:30:50.771Z,20.90
2018-09-05T13:31:50.807Z,20.90
2018-09-05T13:32:50.844Z,21.00
2018-09-05T13:33:50.841Z,21.60
2018-09-05T13:34:50.869Z,23.40
2018-09-05T13:35:50.898Z,23.00
2018-09-05T13:36:50.923Z,22.50
2018-09-05T13:37:50.949Z,23.40
2018-09-05T13:38:50.975Z,22.10
2018-09-05T13:39:51.005Z,23.90
2018-09-05T13:40:51.022Z,25.00
2018-09-05T13:41:51.051Z,22.90
2018-09-05T13:42:51.081Z,22.40
2018-09-05T13:43:51.103Z,23.10
2018-09-05T13:44:51.131Z,23.50
2018-09-05T13:45:51.153Z,26.20
2018-09-05T13:46:51.178Z,26.20
2018-09-05T13:47:51.205Z,26.30
2018-09-05T13:48:51.229Z,25.30
2018-09-05T13:49:51.258Z,26.20
2018-09-05T13:50:51.282Z,27.40
2018-09-05T13:51:51.306Z,27.90
2018-09-05T13:52:51.335Z,27.80
2018-09-05T13:53:51.364Z,28.00
2018-09-05T13:54:51.384Z,28.80
2018-09-05T13:55:51.407Z,28.60
2018-09-05T13:56:51.435Z,29.20
2018-09-05T13:57:51.458Z,30.40
2018-09-05T13:58:51.488Z,28.00
2018-09-05T13:59:51.514Z,28.90
2018-09-05T14:00:51.541Z,28.70
2018-09-05T14:01:51.565Z,29.80
2018-09-05T14:02:51.620Z,28.60
2018-09-05T14:03:51.620Z,26.80
2018-09-05T14:04:51.639Z,24.80
2018-09-05T14:05:51.662Z,24.00
2018-09-05T14:06:51.688Z,25.00
2018-09-05T14:07:51.715Z,24.40
2018-09-05T14:08:51.744Z,23.30
2018-09-05T14:09:51.764Z,23.40
2018-09-05T14:10:51.796Z,23.20
2018-09-05T14:11:51.822Z,22.90
2018-09-05T14:12:51.844Z,23.40
2018-09-05T14:13:51.867Z,22.90
2018-09-05T14:14:51.892Z,22.90
2018-09-05T14:15:51.918Z,23.00
2018-09-05T14:16:51.943Z,24.80
2018-09-05T14:17:51.967Z,23.90
2018-09-05T14:18:52.000Z,24.10
2018-09-05T14:19:52.016Z,24.30
2018-09-05T14:20:52.066Z,24.50
2018-09-05T14:21:52.073Z,23.10
2018-09-05T14:22:52.115Z,26.90
2018-09-05T14:23:52.118Z,30.10
2018-09-05T14:24:52.165Z,30.30
2018-09-05T14:25:52.171Z,31.00
2018-09-05T14:26:52.200Z,29.70
2018-09-05T14:27:52.221Z,29.80
2018-09-05T14:28:52.248Z,30.60
2018-09-05T14:29:52.270Z,31.30
2018-09-05T14:30:52.296Z,29.40
2018-09-05T14:31:52.321Z,28.30
2018-09-05T14:32:52.345Z,28.20
2018-09-05T14:33:52.369Z,27.00
2018-09-05T14:34:52.394Z,28.90
2018-09-05T14:35:52.422Z,29.20
2018-09-05T14:36:52.448Z,27.70
2018-09-05T14:37:52.471Z,28.20
2018-09-05T14:38:52.496Z,28.10
2018-09-05T14:39:52.535Z,27.60
2018-09-05T14:40:52.545Z,27.20
2018-09-05T14:41:52.572Z,30.50
2018-09-05T14:42:52.599Z,30.40
2018-09-05T14:43:52.622Z,29.50
2018-09-05T14:44:52.648Z,29.10
2018-09-05T14:45:52.668Z,29.30
2018-09-05T14:46:52.708Z,28.90
2018-09-05T14:47:52.729Z,28.20
2018-09-05T14:48:52.749Z,28.10
2018-09-05T14:49:52.772Z,27.90
2018-09-05T14:50:52.805Z,29.30
2018-09-05T14:51:52.829Z,28.00
2018-09-05T14:52:52.860Z,26.20
2018-09-05T14:53:52.902Z,28.20
2018-09-05T14:54:52.901Z,28.60
2018-09-05T14:55:52.939Z,28.30
2018-09-05T14:56:52.951Z,27.90
2018-09-05T14:57:52.973Z,28.60
2018-09-05T14:58:52.996Z,28.60
2018-09-05T14:59:53.084Z,29.50
2018-09-05T15:00:53.049Z,28.80
2018-09-05T15:01:53.080Z,29.10
2018-09-05T15:02:53.103Z,28.00
2018-09-05T15:03:53.126Z,30.50
2018-09-05T15:04:53.149Z,29.20
2018-09-05T15:05:53.172Z,28.60
2018-09-05T15:06:53.197Z,29.30
2018-09-05T15:07:53.228Z,27.90
2018-09-05T15:08:53.250Z,27.00
2018-09-05T15:09:53.274Z,27.40
2018-09-05T15:10:53.301Z,27.30
2018-09-05T15:11:53.378Z,28.20
2018-09-05T15:12:53.353Z,29.10
2018-09-05T15:13:53.376Z,27.00
2018-09-05T15:14:53.406Z,28.20
2018-09-05T15:15:53.426Z,28.50
2018-09-05T15:16:53.450Z,27.90
2018-09-05T15:17:53.476Z,25.70
2018-09-05T15:18:53.499Z,26.90
2018-09-05T15:19:53.528Z,26.00
2018-09-05T15:20:53.551Z,25.00
2018-09-05T15:21:53.575Z,25.30
2018-09-05T15:22:53.598Z,24.90
2018-09-05T15:23:53.624Z,24.00
2018-09-05T15:24:53.653Z,25.10
2018-09-05T15:25:53.673Z,24.10
2018-09-05T15:26:53.700Z,24.50
2018-09-05T15:27:53.726Z,24.60
2018-09-05T15:28:53.875Z,23.80
2018-09-05T15:29:53.774Z,22.00
2018-09-05T15:30:53.798Z,21.30
2018-09-05T15:31:53.826Z,21.80
2018-09-05T15:32:53.849Z,21.80
2018-09-05T15:33:53.872Z,19.70
2018-09-05T15:34:53.898Z,20.60
2018-09-05T15:35:53.924Z,21.60
2018-09-05T15:36:53.949Z,20.90
2018-09-05T15:37:53.973Z,20.50